createdAt,value
2018-09-24T00:02:25.035Z,13.77
2018-09-24T00:04:54.976Z,12.70
2018-09-24T00:07:25.799Z,12.43
2018-09-24T00:09:55.541Z,15.00
2018-09-24T00:12:25.927Z,17.10
2018-09-24T00:14:55.737Z,13.27
2018-09-24T00:17:25.504Z,16.50
2018-09-24T00:19:55.369Z,13.70
2018-09-24T00:22:25.367Z,18.43
2018-09-24T00:24:55.423Z,19.60
2018-09-24T00:27:25.555Z,16.10
2018-09-24T00:29:56.391Z,13.93
2018-09-24T00:32:26.180Z,16.03
2018-09-24T00:34:56.096Z,19.73
2018-09-24T00:37:26.127Z,16.97
2018-09-24T00:39:56.437Z,18.67
2018-09-24T00:42:26.560Z,19.27
2018-09-24T00:44:56.271Z,16.43
2018-09-24T00:47:26.539Z,20.07
2018-09-24T00:49:56.641Z,19.93
2018-09-24T00:52:27.167Z,17.57
2018-09-24T00:54:57.066Z,19.00
2018-09-24T00:57:29.199Z,17.87
2018-09-24T00:59:59.487Z,18.17
2018-09-24T01:02:29.539Z,14.50
2018-09-24T01:04:59.665Z,14.40
2018-09-24T01:07:29.565Z,15.67
2018-09-24T01:09:59.535Z,13.43
2018-09-24T01:12:30.121Z,15.07
2018-09-24T01:14:59.971Z,16.43
2018-09-24T01:17:30.848Z,14.63
2018-09-24T01:20:00.827Z,15.47
2018-09-24T01:22:31.061Z,16.43
2018-09-24T01:25:01.266Z,13.40
2018-09-24T01:27:31.227Z,18.97
2018-09-24T01:30:01.327Z,14.83
2018-09-24T01:32:31.517Z,13.20
2018-09-24T01:35:01.262Z,13.97
2018-09-24T01:37:32.528Z,16.63
2018-09-24T01:40:02.584Z,11.93
2018-09-24T01:42:32.665Z,19.53
2018-09-24T01:45:02.956Z,12.07
2018-09-24T01:47:32.721Z,18.87
2018-09-24T01:50:02.524Z,17.80
2018-09-24T01:52:32.479Z,16.10
2018-09-24T01:55:02.324Z,12.67
2018-09-24T01:57:34.040Z,14.27
2018-09-24T02:00:03.887Z,14.67
2018-09-24T02:02:33.907Z,12.30
2018-09-24T02:05:03.584Z,12.00
2018-09-24T02:07:35.006Z,17.47
2018-09-24T02:10:04.933Z,11.93
2018-09-24T02:12:35.405Z,11.07
2018-09-24T02:15:06.788Z,15.70
2018-09-24T02:17:36.935Z,16.47
2018-09-24T02:20:07.017Z,13.47
2018-09-24T02:22:37.051Z,14.13
2018-09-24T02:25:06.853Z,16.87
2018-09-24T02:27:37.044Z,13.47
2018-09-24T02:30:07.335Z,23.20
2018-09-24T02:32:37.105Z,19.07
2018-09-24T02:35:07.295Z,15.53
2018-09-24T02:37:38.071Z,19.20
2018-09-24T02:40:09.111Z,18.97
2018-09-24T02:42:38.804Z,15.57
2018-09-24T02:45:08.455Z,20.97
2018-09-24T02:47:38.869Z,17.40
2018-09-24T02:50:08.930Z,21.77
2018-09-24T02:52:38.752Z,20.10
2018-09-24T02:55:15.908Z,21.83
2018-09-24T02:57:45.870Z,18.63
2018-09-24T03:00:22.335Z,17.33
2018-09-24T03:02:52.261Z,11.87
2018-09-24T03:05:22.829Z,12.60
2018-09-24T03:07:52.707Z,16.60
2018-09-24T03:10:22.723Z,12.07
2018-09-24T03:12:53.545Z,15.00
2018-09-24T03:15:23.422Z,17.13
2018-09-24T03:17:53.341Z,17.93
2018-09-24T03:20:23.374Z,13.90
2018-09-24T03:22:53.293Z,12.07
2018-09-24T03:25:23.088Z,14.40
2018-09-24T03:27:53.002Z,12.73
2018-09-24T03:30:23.114Z,14.13
2018-09-24T03:32:53.578Z,16.73
2018-09-24T03:35:23.533Z,13.60
2018-09-24T03:37:53.954Z,11.07
2018-09-24T03:40:23.677Z,11.47
2018-09-24T03:42:53.654Z,13.37
2018-09-24T03:45:23.611Z,8.53
2018-09-24T03:47:53.755Z,13.23
2018-09-24T03:50:23.269Z,11.97
2018-09-24T03:52:53.187Z,13.33
2018-09-24T03:55:22.927Z,13.17
2018-09-24T03:57:52.764Z,12.33
2018-09-24T04:00:22.805Z,12.73
2018-09-24T04:02:53.312Z,10.07
2018-09-24T04:05:28.131Z,11.40
2018-09-24T04:08:03.503Z,11.20
2018-09-24T04:10:42.120Z,12.17
2018-09-24T04:13:17.150Z,16.63
2018-09-24T04:15:52.507Z,13.33
2018-09-24T04:18:27.632Z,15.80
2018-09-24T04:21:02.725Z,15.07
2018-09-24T04:23:37.928Z,15.13
2018-09-24T04:26:13.103Z,21.33
2018-09-24T04:28:48.413Z,16.77
2018-09-24T04:31:23.546Z,18.87
2018-09-24T04:33:59.284Z,12.47
2018-09-24T04:36:33.900Z,22.90
2018-09-24T04:39:09.183Z,14.53
2018-09-24T04:41:44.901Z,15.27
2018-09-24T04:44:21.024Z,19.83
2018-09-24T04:46:56.421Z,17.83
2018-09-24T04:49:33.394Z,21.77
2018-09-24T04:54:50.149Z,32.83
2018-09-24T04:57:25.339Z,14.90
2018-09-24T05:00:00.515Z,26.47
2018-09-24T05:02:39.068Z,31.93
2018-09-24T05:05:14.164Z,20.20
2018-09-24T05:07:49.693Z,16.80
2018-09-24T05:10:25.750Z,18.10
2018-09-24T05:13:00.620Z,15.00
2018-09-24T05:15:35.731Z,15.57
2018-09-24T05:18:10.744Z,20.27
2018-09-24T05:20:45.860Z,24.47
2018-09-24T05:23:20.894Z,25.40
2018-09-24T05:25:56.982Z,20.20
2018-09-24T05:28:31.789Z,22.80
2018-09-24T05:31:06.703Z,29.00
2018-09-24T05:33:41.619Z,22.97
2018-09-24T05:36:16.763Z,28.90
2018-09-24T05:38:51.983Z,25.40
2018-09-24T05:41:26.727Z,22.93
2018-09-24T05:44:01.847Z,25.60
2018-09-24T05:46:38.115Z,23.57
2018-09-24T05:49:14.095Z,27.30
2018-09-24T05:51:49.207Z,23.63
2018-09-24T05:54:24.346Z,28.60
2018-09-24T05:56:59.597Z,31.53
2018-09-24T05:59:34.883Z,23.17
2018-09-24T06:02:09.785Z,24.03
2018-09-24T06:04:45.146Z,24.40
2018-09-24T06:07:20.599Z,22.03
2018-09-24T06:09:55.516Z,25.43
2018-09-24T06:12:30.725Z,26.77
2018-09-24T06:15:05.803Z,28.03
2018-09-24T06:17:40.890Z,24.53
2018-09-24T06:20:15.676Z,19.27
2018-09-24T06:22:50.409Z,28.27
2018-09-24T06:25:25.493Z,25.60
2018-09-24T06:28:06.480Z,18.50
2018-09-24T06:33:22.648Z,17.73
2018-09-24T06:35:57.827Z,15.93
2018-09-24T06:38:32.834Z,17.13
2018-09-24T06:41:08.160Z,19.70
2018-09-24T06:43:43.678Z,25.17
2018-09-24T06:46:18.968Z,21.10
2018-09-24T06:48:55.080Z,20.27
2018-09-24T06:51:29.976Z,18.03
2018-09-24T06:54:05.015Z,17.57
2018-09-24T06:56:39.939Z,21.97
2018-09-24T06:59:15.321Z,24.77
2018-09-24T07:01:52.007Z,15.37
2018-09-24T07:04:26.693Z,15.80
2018-09-24T07:07:02.153Z,17.50
2018-09-24T07:09:37.357Z,14.60
2018-09-24T07:12:12.434Z,17.30
2018-09-24T07:14:47.927Z,17.43
2018-09-24T07:17:22.802Z,10.33
2018-09-24T07:19:58.894Z,10.10
2018-09-24T07:22:33.731Z,9.67
2018-09-24T07:25:09.061Z,9.70
2018-09-24T07:27:44.131Z,10.93
2018-09-24T07:30:19.210Z,11.33
2018-09-24T07:32:54.837Z,10.57
2018-09-24T07:35:30.106Z,10.93
2018-09-24T07:38:05.360Z,8.07
2018-09-24T07:40:40.445Z,8.77
2018-09-24T07:43:15.751Z,5.67
2018-09-24T07:45:50.337Z,11.60
2018-09-24T07:48:25.247Z,9.93
2018-09-24T07:51:01.072Z,5.83
2018-09-24T07:53:36.293Z,11.17
2018-09-24T07:56:11.830Z,9.70
2018-09-24T07:58:46.905Z,7.57
2018-09-24T08:01:22.393Z,12.57
2018-09-24T08:03:57.060Z,5.17
2018-09-24T08:06:32.222Z,5.93
2018-09-24T08:09:07.534Z,8.07
2018-09-24T08:11:42.697Z,7.37
2018-09-24T08:14:17.751Z,5.67
2018-09-24T08:16:54.288Z,6.33
2018-09-24T08:19:29.235Z,12.30
2018-09-24T08:22:04.219Z,11.17
2018-09-24T08:24:39.462Z,5.87
2018-09-24T08:27:14.738Z,5.07
2018-09-24T08:29:56.946Z,6.10
2018-09-24T08:32:31.572Z,6.67
2018-09-24T08:35:06.568Z,6.27
2018-09-24T08:37:41.778Z,7.20
2018-09-24T08:40:16.789Z,10.83
2018-09-24T08:42:51.926Z,9.17
2018-09-24T08:45:27.093Z,7.40
2018-09-24T08:48:02.357Z,9.37
2018-09-24T08:50:37.234Z,5.83
2018-09-24T08:53:12.572Z,7.63
2018-09-24T08:55:47.364Z,8.80
2018-09-24T08:58:22.371Z,10.57
2018-09-24T09:01:00.508Z,5.33
2018-09-24T09:03:35.775Z,5.90
2018-09-24T09:06:11.153Z,5.23
2018-09-24T09:08:46.113Z,8.13
2018-09-24T09:11:22.321Z,10.43
2018-09-24T09:13:57.472Z,8.40
2018-09-24T09:16:32.835Z,8.30
2018-09-24T09:19:13.544Z,12.00
2018-09-24T09:21:48.905Z,7.50
2018-09-24T09:24:24.065Z,5.93
2018-09-24T09:27:00.878Z,5.70
2018-09-24T09:29:36.349Z,6.27
2018-09-24T09:32:11.635Z,5.33
2018-09-24T09:34:46.843Z,7.53
2018-09-24T09:37:22.026Z,15.73
2018-09-24T09:39:57.519Z,10.33
2018-09-24T09:42:32.702Z,9.10
2018-09-24T09:45:08.581Z,10.70
2018-09-24T09:47:43.783Z,4.33
2018-09-24T09:50:18.462Z,8.77
2018-09-24T09:52:53.306Z,6.30
2018-09-24T09:55:28.256Z,6.97
2018-09-24T09:58:03.082Z,3.63
2018-09-24T10:00:37.821Z,6.00
2018-09-24T10:03:12.504Z,5.83
2018-09-24T10:05:47.546Z,4.40
2018-09-24T10:08:22.724Z,6.60
2018-09-24T10:10:59.881Z,5.63
2018-09-24T10:13:34.882Z,2.60
2018-09-24T10:16:11.856Z,6.47
2018-09-24T10:18:46.506Z,5.60
2018-09-24T10:21:21.484Z,3.47
2018-09-24T10:23:56.064Z,5.07
2018-09-24T10:26:30.705Z,6.43
2018-09-24T10:29:05.920Z,4.50
2018-09-24T10:31:40.914Z,5.10
2018-09-24T10:34:15.807Z,6.20
2018-09-24T10:36:52.722Z,8.40
2018-09-24T10:39:27.190Z,5.00
2018-09-24T10:42:02.344Z,5.10
2018-09-24T10:44:36.632Z,4.33
2018-09-24T10:47:11.333Z,6.97
2018-09-24T10:52:28.189Z,7.60
2018-09-24T10:55:03.296Z,5.30
2018-09-24T10:57:38.757Z,2.73
2018-09-24T11:00:14.899Z,4.57
2018-09-24T11:02:50.236Z,6.20
2018-09-24T11:05:25.565Z,5.07
2018-09-24T11:08:00.314Z,5.03
2018-09-24T11:10:35.272Z,10.40
2018-09-24T11:13:10.598Z,5.23
2018-09-24T11:15:45.566Z,5.80
2018-09-24T11:18:20.810Z,6.57
2018-09-24T11:20:55.763Z,8.30
2018-09-24T11:23:32.792Z,4.07
2018-09-24T11:26:07.685Z,3.27
2018-09-24T11:28:43.016Z,4.57
2018-09-24T11:31:19.830Z,3.80
2018-09-24T11:33:54.794Z,3.23
2018-09-24T11:36:29.642Z,4.33
2018-09-24T11:39:04.555Z,6.47
2018-09-24T11:41:39.536Z,4.20
2018-09-24T11:44:14.714Z,3.97
2018-09-24T11:46:49.483Z,6.37
2018-09-24T11:49:24.576Z,3.43
2018-09-24T11:51:59.744Z,3.83
2018-09-24T11:54:34.761Z,6.33
2018-09-24T11:57:12.189Z,3.70
2018-09-24T11:59:47.229Z,4.60
2018-09-24T12:02:22.326Z,7.60
2018-09-24T12:04:57.428Z,6.90
2018-09-24T12:07:32.435Z,2.07
2018-09-24T12:10:07.604Z,4.70
2018-09-24T12:12:42.349Z,8.83
2018-09-24T12:15:17.492Z,5.63
2018-09-24T12:17:52.658Z,4.43
2018-09-24T12:20:28.008Z,4.30
2018-09-24T12:23:02.802Z,5.20
2018-09-24T12:25:37.593Z,4.00
2018-09-24T12:28:13.442Z,5.73
2018-09-24T12:30:48.593Z,4.30
2018-09-24T12:36:05.653Z,7.77
2018-09-24T12:38:40.858Z,3.93
2018-09-24T12:41:16.497Z,7.10
2018-09-24T12:43:52.166Z,4.57
2018-09-24T12:46:27.478Z,5.07
2018-09-24T12:49:02.409Z,4.57
2018-09-24T12:51:37.626Z,6.30
2018-09-24T12:54:12.371Z,8.37
2018-09-24T12:56:53.281Z,6.30
2018-09-24T12:59:28.965Z,8.57
2018-09-24T13:02:04.299Z,4.23
2018-09-24T13:04:39.873Z,8.17
2018-09-24T13:07:16.322Z,4.20
2018-09-24T13:09:51.735Z,8.00
2018-09-24T13:12:26.935Z,6.67
2018-09-24T13:15:01.767Z,3.80
2018-09-24T13:17:36.377Z,5.07
2018-09-24T13:20:13.472Z,5.30
2018-09-24T13:22:49.553Z,5.87
2018-09-24T13:25:25.039Z,3.77
2018-09-24T13:28:00.591Z,6.10
2018-09-24T13:30:35.621Z,5.27
2018-09-24T13:33:10.589Z,9.53
2018-09-24T13:35:45.831Z,6.10
2018-09-24T13:38:20.724Z,9.73
2018-09-24T13:40:56.280Z,4.40
2018-09-24T13:43:31.619Z,5.20
2018-09-24T13:46:06.710Z,4.73
2018-09-24T13:48:42.022Z,2.83
2018-09-24T13:51:18.527Z,6.10
2018-09-24T13:53:54.061Z,5.13
2018-09-24T13:56:29.439Z,4.37
2018-09-24T13:59:05.696Z,4.60
2018-09-24T14:01:41.685Z,4.17
2018-09-24T14:04:17.804Z,7.57
2018-09-24T14:06:58.588Z,4.17
2018-09-24T14:09:34.502Z,7.03
2018-09-24T14:12:11.151Z,4.27
2018-09-24T14:14:49.140Z,6.70
2018-09-24T14:20:07.179Z,5.63
2018-09-24T14:22:44.852Z,7.47
2018-09-24T14:25:22.688Z,5.33
2018-09-24T14:27:57.927Z,4.87
2018-09-24T14:30:33.802Z,3.77
2018-09-24T14:33:08.688Z,2.87
2018-09-24T14:35:44.209Z,5.77
2018-09-24T14:38:20.808Z,4.77
2018-09-24T14:40:56.389Z,6.17
2018-09-24T14:43:32.139Z,7.93
2018-09-24T14:46:12.765Z,7.07
2018-09-24T14:48:50.704Z,4.73
2018-09-24T14:51:26.025Z,6.17
2018-09-24T14:54:01.546Z,6.50
2018-09-24T14:56:38.902Z,6.07
2018-09-24T14:59:15.237Z,6.53
2018-09-24T15:01:50.327Z,5.27
2018-09-24T15:04:27.034Z,5.20
2018-09-24T15:07:02.075Z,5.50
2018-09-24T15:09:37.383Z,3.87
2018-09-24T15:12:13.032Z,6.47
2018-09-24T15:14:49.803Z,8.07
2018-09-24T15:17:26.741Z,7.37
2018-09-24T15:20:01.863Z,6.17
2018-09-24T15:22:37.063Z,6.20
2018-09-24T15:25:13.059Z,11.60
2018-09-24T15:27:48.223Z,5.50
2018-09-24T15:30:24.226Z,5.40
2018-09-24T15:32:59.342Z,5.20
2018-09-24T15:35:34.549Z,7.57
2018-09-24T15:38:09.802Z,6.33
2018-09-24T15:40:45.818Z,6.20
2018-09-24T15:43:21.784Z,7.87
2018-09-24T15:45:57.300Z,8.07
2018-09-24T15:48:33.730Z,4.57
2018-09-24T15:51:09.124Z,5.03
2018-09-24T15:53:44.508Z,7.23
2018-09-24T15:56:19.805Z,9.17
2018-09-24T15:58:56.050Z,7.53
2018-09-24T16:04:12.938Z,10.20
2018-09-24T16:06:48.225Z,7.37
2018-09-24T16:09:23.477Z,7.13
2018-09-24T16:11:58.431Z,5.07
2018-09-24T16:14:34.609Z,6.70
2018-09-24T16:17:09.740Z,8.77
2018-09-24T16:19:44.232Z,5.07
2018-09-24T16:22:19.497Z,6.30
2018-09-24T16:24:54.984Z,8.47
2018-09-24T16:27:29.711Z,8.60
2018-09-24T16:30:05.292Z,9.83
2018-09-24T16:32:40.635Z,9.83
2018-09-24T16:35:16.827Z,7.50
2018-09-24T16:37:51.985Z,7.07
2018-09-24T16:40:26.787Z,6.40
2018-09-24T16:43:01.779Z,6.77
2018-09-24T16:45:37.166Z,8.03
2018-09-24T16:50:55.429Z,8.90
2018-09-24T16:53:33.074Z,7.57
2018-09-24T16:56:08.317Z,7.33
2018-09-24T16:58:43.144Z,5.47
2018-09-24T17:01:18.086Z,5.93
2018-09-24T17:03:53.419Z,5.47
2018-09-24T17:06:28.781Z,7.87
2018-09-24T17:09:07.113Z,4.57
2018-09-24T17:11:42.853Z,6.83
2018-09-24T17:14:19.374Z,6.67
2018-09-24T17:16:57.421Z,6.70
2018-09-24T17:19:34.030Z,7.27
2018-09-24T17:22:09.242Z,6.83
2018-09-24T17:24:45.037Z,12.17
2018-09-24T17:27:20.576Z,11.27
2018-09-24T17:29:55.393Z,12.80
2018-09-24T17:32:33.116Z,19.30
2018-09-24T17:35:08.812Z,11.47
2018-09-24T17:37:44.933Z,11.93
2018-09-24T17:40:20.364Z,12.07
2018-09-24T17:42:55.600Z,11.33
2018-09-24T17:45:30.065Z,15.37
2018-09-24T17:48:05.153Z,16.23
2018-09-24T17:50:41.168Z,15.43
2018-09-24T17:53:15.977Z,19.43
2018-09-24T17:55:50.833Z,10.37
2018-09-24T17:58:25.588Z,15.07
2018-09-24T18:01:00.320Z,12.00
2018-09-24T18:03:35.879Z,6.37
2018-09-24T18:06:10.818Z,7.53
2018-09-24T18:08:46.108Z,11.10
2018-09-24T18:11:21.175Z,11.30
2018-09-24T18:13:56.202Z,5.13
2018-09-24T18:16:31.410Z,11.73
2018-09-24T18:19:11.392Z,9.03
2018-09-24T18:21:46.148Z,11.30
2018-09-24T18:24:21.455Z,9.27
2018-09-24T18:26:56.482Z,10.13
2018-09-24T18:29:31.406Z,9.80
2018-09-24T18:32:06.625Z,8.43
2018-09-24T18:34:42.090Z,12.33
2018-09-24T18:37:18.475Z,12.93
2018-09-24T18:39:53.513Z,8.87
2018-09-24T18:42:28.888Z,10.57
2018-09-24T18:45:04.069Z,9.90
2018-09-24T18:47:39.865Z,9.93
2018-09-24T18:50:15.638Z,12.77
2018-09-24T18:52:51.293Z,11.53
2018-09-24T18:55:26.456Z,11.13
2018-09-24T18:58:03.084Z,8.90
2018-09-24T19:00:38.329Z,12.20
2018-09-24T19:03:13.039Z,10.93
2018-09-24T19:05:48.172Z,11.73
2018-09-24T19:08:23.339Z,6.47
2018-09-24T19:10:58.438Z,9.47
2018-09-24T19:13:34.486Z,9.30
2018-09-24T19:16:09.727Z,8.63
2018-09-24T19:18:45.418Z,13.53
2018-09-24T19:21:20.711Z,9.93
2018-09-24T19:23:56.026Z,6.00
2018-09-24T19:26:31.006Z,8.60
2018-09-24T19:29:06.263Z,9.33
2018-09-24T19:31:40.997Z,12.33
2018-09-24T19:34:16.175Z,5.80
2018-09-24T19:36:51.360Z,6.27
2018-09-24T19:39:26.114Z,9.60
2018-09-24T19:42:01.303Z,6.30
2018-09-24T19:44:36.547Z,10.97
2018-09-24T19:47:11.826Z,8.83
2018-09-24T19:49:47.868Z,6.27
2018-09-24T19:52:23.056Z,9.23
2018-09-24T19:54:58.128Z,7.17
2018-09-24T19:57:33.264Z,14.43
2018-09-24T20:00:09.447Z,7.80
2018-09-24T20:02:45.655Z,8.50
2018-09-24T20:05:21.312Z,5.20
2018-09-24T20:07:56.895Z,8.10
2018-09-24T20:10:31.734Z,7.10
2018-09-24T20:13:06.594Z,9.67
2018-09-24T20:15:55.788Z,4.60
2018-09-24T20:18:30.848Z,4.67
2018-09-24T20:23:50.803Z,7.40
2018-09-24T20:26:30.952Z,9.93
2018-09-24T20:29:07.840Z,8.50
2018-09-24T20:31:43.254Z,8.20
2018-09-24T20:34:18.351Z,8.77
2018-09-24T20:36:53.334Z,8.17
2018-09-24T20:39:28.649Z,11.63
2018-09-24T20:42:06.281Z,12.30
2018-09-24T20:44:41.038Z,7.37
2018-09-24T20:47:16.554Z,10.37
2018-09-24T20:49:51.935Z,7.87
2018-09-24T20:52:27.677Z,6.53
2018-09-24T20:55:03.179Z,7.10
2018-09-24T20:57:39.491Z,8.83
2018-09-24T21:00:14.362Z,8.83
2018-09-24T21:02:49.914Z,9.27
2018-09-24T21:05:24.937Z,7.70
2018-09-24T21:07:59.844Z,9.33
2018-09-24T21:10:34.863Z,10.87
2018-09-24T21:13:09.582Z,9.03
2018-09-24T21:15:44.482Z,11.70
2018-09-24T21:18:19.602Z,9.13
2018-09-24T21:20:54.442Z,10.90
2018-09-24T21:23:30.044Z,11.67
2018-09-24T21:26:05.279Z,8.77
2018-09-24T21:28:39.791Z,8.13
2018-09-24T21:31:14.612Z,7.67
2018-09-24T21:33:50.832Z,11.63
2018-09-24T21:36:25.859Z,9.67
2018-09-24T21:39:01.179Z,6.13
2018-09-24T21:41:36.149Z,8.40
2018-09-24T21:44:11.053Z,10.20
2018-09-24T21:46:46.241Z,12.17
2018-09-24T21:49:21.316Z,9.43
2018-09-24T21:51:56.133Z,11.27
2018-09-24T21:54:31.438Z,6.77
2018-09-24T21:57:06.324Z,11.63
2018-09-24T21:59:41.214Z,8.73
2018-09-24T22:02:15.938Z,8.93
2018-09-24T22:04:51.456Z,8.20
2018-09-24T22:07:26.420Z,8.67
2018-09-24T22:10:01.539Z,11.93
2018-09-24T22:12:36.362Z,7.10
2018-09-24T22:15:11.019Z,6.20
2018-09-24T22:17:45.802Z,8.17
2018-09-24T22:20:20.538Z,8.73
2018-09-24T22:22:55.691Z,4.43
2018-09-24T22:25:30.186Z,5.17
2018-09-24T22:28:04.604Z,4.77
2018-09-24T22:30:39.503Z,10.80
2018-09-24T22:33:14.380Z,6.57
2018-09-24T22:35:49.095Z,6.40
2018-09-24T22:38:23.721Z,7.60
2018-09-24T22:40:58.312Z,10.07
2018-09-24T22:43:33.618Z,6.07
2018-09-24T22:46:08.267Z,10.47
2018-09-24T22:48:46.633Z,8.13
2018-09-24T22:51:21.083Z,6.30
2018-09-24T22:53:55.866Z,6.07
2018-09-24T22:56:30.107Z,5.33
2018-09-24T22:59:04.787Z,10.47
2018-09-24T23:01:39.688Z,8.13
2018-09-24T23:04:14.423Z,5.87
2018-09-24T23:06:49.154Z,5.07
2018-09-24T23:09:24.314Z,9.20
2018-09-24T23:11:58.953Z,7.63
2018-09-24T23:14:33.531Z,4.13
2018-09-24T23:17:08.190Z,12.30
2018-09-24T23:19:42.886Z,8.27
2018-09-24T23:22:18.059Z,5.83
2018-09-24T23:24:52.825Z,9.27
2018-09-24T23:27:33.056Z,6.10
2018-09-24T23:30:07.679Z,4.87
2018-09-24T23:32:42.247Z,9.53
2018-09-24T23:35:16.883Z,6.37
2018-09-24T23:37:51.965Z,8.37
2018-09-24T23:40:26.758Z,7.13
2018-09-24T23:43:01.299Z,6.67
2018-09-24T23:45:36.631Z,5.23
2018-09-24T23:48:11.238Z,7.27
2018-09-24T23:50:46.349Z,6.00
2018-09-24T23:53:23.306Z,5.97
2018-09-24T23:55:58.796Z,7.60
2018-09-24T23:58:33.738Z,8.40
